Time;durP1;ratioP1;P1;durP2;ratioP2;P2;SDS_P1;SDS_P2;PMS_P1;PMS_P2;Temp;Humidity;BMP_temperature;BMP_pressure;BME280_temperature;BME280_humidity;BME280_pressure;Samples;Min_cycle;Max_cycle;Signal;HPM_P1;HPM_P2
2022/05/18 00:00:27;;;;;;;3.92;1.90;;;19.80;99.90;;;;;;7389643;19;20146;-73
2022/05/18 00:03:04;;;;;;;2.35;1.70;;;19.70;99.90;;;;;;7389767;19;20150;-74
2022/05/18 00:05:32;;;;;;;3.15;1.90;;;19.30;99.90;;;;;;7389553;19;20146;-74
2022/05/18 00:07:58;;;;;;;2.78;1.98;;;19.40;99.90;;;;;;7390744;19;20202;-75
2022/05/18 00:10:23;;;;;;;3.25;1.70;;;19.50;99.90;;;;;;7393308;19;20141;-74
2022/05/18 00:12:50;;;;;;;2.78;2.10;;;19.20;99.90;;;;;;7390201;19;20126;-74
2022/05/18 00:15:19;;;;;;;2.20;1.92;;;19.40;99.90;;;;;;7390564;19;20603;-75
2022/05/18 00:17:45;;;;;;;2.58;1.60;;;19.30;99.90;;;;;;7390545;19;20141;-74
2022/05/18 00:20:12;;;;;;;2.40;1.70;;;19.40;99.90;;;;;;7389715;19;20574;-73
2022/05/18 00:22:49;;;;;;;2.88;1.75;;;19.10;99.90;;;;;;7390499;19;20182;-74
2022/05/18 00:25:17;;;;;;;2.67;1.70;;;19.00;99.90;;;;;;7391434;19;20581;-74
2022/05/18 00:27:43;;;;;;;2.33;1.70;;;19.10;99.90;;;;;;7388301;19;20137;-74
2022/05/18 00:30:12;;;;;;;3.83;1.80;;;18.90;99.90;;;;;;7390313;19;20210;-74
2022/05/18 00:32:38;;;;;;;3.28;2.00;;;18.80;99.90;;;;;;7393697;19;20126;-74
2022/05/18 00:35:04;;;;;;;2.42;1.70;;;18.90;99.90;;;;;;7393181;19;20224;-73
2022/05/18 00:37:30;;;;;;;2.15;1.60;;;19.10;99.90;;;;;;7387941;19;20130;-73
2022/05/18 00:39:56;;;;;;;2.05;1.67;;;19.00;99.90;;;;;;7389205;19;20142;-74
2022/05/18 00:42:24;;;;;;;3.05;1.50;;;19.10;99.90;;;;;;7388506;19;20167;-73
2022/05/18 00:44:50;;;;;;;3.10;1.63;;;19.10;99.90;;;;;;7387993;19;20133;-73
2022/05/18 00:47:16;;;;;;;2.50;1.58;;;19.40;99.90;;;;;;7389784;19;20605;-73
2022/05/18 00:49:46;;;;;;;2.05;1.65;;;19.40;99.90;;;;;;7390191;19;20131;-74
2022/05/18 00:52:14;;;;;;;2.13;1.63;;;19.30;99.90;;;;;;7392375;19;20142;-74
2022/05/18 00:54:41;;;;;;;1.73;1.60;;;18.80;99.90;;;;;;7388831;19;20142;-74
2022/05/18 00:57:17;;;;;;;3.15;1.60;;;18.60;99.90;;;;;;7387660;19;20138;-73
2022/05/18 00:59:48;;;;;;;2.78;1.83;;;18.50;99.90;;;;;;7387818;19;20157;-73
2022/05/18 01:02:15;;;;;;;2.20;1.75;;;18.60;99.90;;;;;;7388168;19;20130;-73
2022/05/18 01:04:42;;;;;;;2.05;1.60;;;18.60;99.90;;;;;;7387521;19;20138;-74
2022/05/18 01:07:17;;;;;;;3.15;2.45;;;18.70;99.90;;;;;;7387272;19;20169;-75
2022/05/18 01:09:46;;;;;;;2.75;1.90;;;18.80;99.90;;;;;;7393480;19;20160;-73
2022/05/18 01:12:15;;;;;;;3.25;1.95;;;19.00;99.90;;;;;;7395816;19;20602;-73
2022/05/18 01:14:53;;;;;;;4.50;2.17;;;19.10;99.90;;;;;;7391113;19;20521;-73
2022/05/18 01:17:27;;;;;;;2.20;2.00;;;19.30;99.90;;;;;;7387426;19;20605;-74
2022/05/18 01:19:56;;;;;;;2.28;1.90;;;19.50;99.90;;;;;;7387933;19;20473;-74
2022/05/18 01:22:40;;;;;;;3.08;1.85;;;19.50;99.90;;;;;;7387629;19;20637;-74
2022/05/18 01:25:31;;;;;;;4.07;1.90;;;19.50;99.90;;;;;;7397122;19;20138;-74
2022/05/18 01:27:58;;;;;;;5.13;2.40;;;19.40;99.90;;;;;;7396259;19;20600;-74
2022/05/18 01:30:27;;;;;;;5.85;2.60;;;19.20;99.90;;;;;;7397306;19;20134;-72
2022/05/18 01:32:54;;;;;;;3.88;2.53;;;18.80;99.90;;;;;;7397149;19;20476;-74
2022/05/18 01:35:23;;;;;;;2.58;1.88;;;18.80;99.90;;;;;;7397286;19;20163;-73
2022/05/18 01:37:49;;;;;;;5.72;2.50;;;18.90;99.90;;;;;;7399677;19;20142;-73
2022/05/18 01:40:39;;;;;;;3.55;2.30;;;19.00;99.90;;;;;;7396785;19;20137;-74
2022/05/18 01:43:16;;;;;;;3.15;2.20;;;19.10;99.90;;;;;;7394990;19;20687;-74
2022/05/18 01:45:42;;;;;;;5.10;2.15;;;19.10;99.90;;;;;;7397488;19;20158;-74
2022/05/18 01:48:14;;;;;;;3.30;2.40;;;19.00;99.90;;;;;;7394066;19;20341;-73
2022/05/18 01:50:41;;;;;;;2.95;2.25;;;18.90;99.90;;;;;;7396723;19;20146;-73
2022/05/18 01:53:08;;;;;;;4.68;2.30;;;19.00;99.90;;;;;;7396573;19;20134;-73
2022/05/18 01:55:34;;;;;;;2.33;1.80;;;19.10;99.90;;;;;;7395890;19;20134;-74
2022/05/18 01:58:00;;;;;;;3.75;1.90;;;19.00;99.90;;;;;;7398276;19;20127;-76
2022/05/18 02:00:27;;;;;;;4.20;2.35;;;18.80;99.90;;;;;;7394662;19;20610;-73
2022/05/18 02:02:53;;;;;;;2.67;1.77;;;18.80;99.90;;;;;;7394851;19;20142;-74
2022/05/18 02:05:19;;;;;;;2.97;2.00;;;18.90;99.90;;;;;;7394103;19;20146;-74
2022/05/18 02:07:45;;;;;;;2.05;1.45;;;18.90;99.90;;;;;;7392489;19;20590;-74
2022/05/18 02:10:12;;;;;;;2.67;1.75;;;19.00;99.90;;;;;;7392775;19;20150;-73
2022/05/18 02:12:39;;;;;;;2.28;1.73;;;19.00;99.90;;;;;;7395288;19;20131;-73
2022/05/18 02:15:05;;;;;;;2.78;1.80;;;19.00;99.90;;;;;;7394742;19;20949;-74
2022/05/18 02:17:31;;;;;;;2.97;1.52;;;19.10;99.90;;;;;;7394096;19;20131;-74
2022/05/18 02:19:58;;;;;;;2.97;2.30;;;19.00;99.90;;;;;;7396691;19;20206;-73
2022/05/18 02:22:25;;;;;;;4.80;2.08;;;18.90;99.90;;;;;;7395195;19;20142;-74
2022/05/18 02:24:51;;;;;;;2.72;1.80;;;18.70;99.90;;;;;;7392439;19;20220;-72
2022/05/18 02:27:17;;;;;;;3.35;1.90;;;18.70;99.90;;;;;;7391687;19;20529;-72
2022/05/18 02:29:44;;;;;;;2.88;2.00;;;18.80;99.90;;;;;;7393364;19;20232;-72
2022/05/18 02:32:10;;;;;;;2.63;2.00;;;18.50;99.90;;;;;;7396521;19;20532;-74
2022/05/18 02:34:36;;;;;;;3.35;2.10;;;18.50;99.90;;;;;;7395436;19;20126;-73
2022/05/18 02:37:03;;;;;;;5.22;1.90;;;18.60;99.90;;;;;;7389909;19;20150;-74
2022/05/18 02:39:29;;;;;;;2.53;1.80;;;18.40;99.90;;;;;;7394009;19;20131;-74
2022/05/18 02:41:55;;;;;;;2.00;1.77;;;18.70;99.90;;;;;;7392249;19;20149;-74
2022/05/18 02:44:21;;;;;;;2.15;1.83;;;18.60;99.90;;;;;;7393626;19;20134;-73
2022/05/18 02:46:47;;;;;;;3.10;1.77;;;18.70;99.90;;;;;;7392308;19;20134;-74
2022/05/18 02:49:15;;;;;;;2.55;1.90;;;18.70;99.90;;;;;;7391813;19;20688;-74
2022/05/18 02:51:41;;;;;;;2.67;1.88;;;18.70;99.90;;;;;;7393389;19;20604;-73
2022/05/18 02:56:54;;;;;;;3.28;2.00;;;18.50;99.90;;;;;;7392839;19;20155;-73
2022/05/18 02:59:21;;;;;;;3.70;2.22;;;18.60;99.90;;;;;;7395599;19;20131;-73
2022/05/18 03:01:48;;;;;;;4.97;2.83;;;18.70;99.90;;;;;;7393296;19;20586;-73
2022/05/18 03:04:14;;;;;;;5.07;2.63;;;18.80;99.90;;;;;;7402039;19;20157;-73
2022/05/18 03:06:40;;;;;;;5.53;2.75;;;18.70;99.90;;;;;;7391928;19;20180;-74
2022/05/18 03:09:07;;;;;;;4.28;2.78;;;18.80;99.90;;;;;;7392144;19;20141;-73
2022/05/18 03:11:33;;;;;;;5.22;2.60;;;18.60;99.90;;;;;;7392695;19;20602;-74
2022/05/18 03:13:58;;;;;;;4.10;2.60;;;18.60;99.90;;;;;;7390919;19;20119;-73
2022/05/18 03:16:26;;;;;;;3.88;2.35;;;18.50;99.90;;;;;;7394635;19;20163;-73
2022/05/18 03:18:51;;;;;;;3.78;2.30;;;18.30;99.90;;;;;;7396183;19;20558;-73
2022/05/18 03:24:02;;;;;;;4.65;2.60;;;18.30;99.90;;;;;;7392421;19;20142;-73
2022/05/18 03:26:28;;;;;;;3.70;2.15;;;18.30;99.90;;;;;;7395546;19;20150;-74
2022/05/18 03:28:58;;;;;;;2.53;2.05;;;18.50;99.90;;;;;;7393254;19;20566;-71
2022/05/18 03:31:25;;;;;;;2.67;2.22;;;18.50;99.90;;;;;;7389720;19;20142;-73
2022/05/18 03:33:52;;;;;;;2.75;2.15;;;18.50;99.90;;;;;;7391740;19;20160;-74
2022/05/18 03:36:19;;;;;;;3.17;2.53;;;18.60;99.90;;;;;;7395384;19;20606;-74
2022/05/18 03:38:46;;;;;;;2.60;2.10;;;18.70;99.90;;;;;;7391217;19;20509;-73
2022/05/18 03:41:13;;;;;;;3.53;2.33;;;18.70;99.90;;;;;;7389063;19;20949;-73
2022/05/18 03:43:39;;;;;;;3.15;2.28;;;18.70;99.90;;;;;;7391290;19;20135;-74
2022/05/18 03:46:06;;;;;;;3.35;2.20;;;18.50;99.90;;;;;;7392031;19;20137;-73
2022/05/18 03:48:33;;;;;;;2.55;2.28;;;18.20;99.90;;;;;;7388259;19;20161;-73
2022/05/18 03:51:01;;;;;;;4.25;2.40;;;18.20;99.90;;;;;;7391546;19;20131;-73
2022/05/18 03:53:28;;;;;;;5.22;2.40;;;18.40;99.90;;;;;;7390804;19;20130;-73
2022/05/18 03:55:54;;;;;;;4.40;2.80;;;18.50;99.90;;;;;;7389558;19;20134;-74
2022/05/18 03:58:20;;;;;;;5.53;2.55;;;18.60;99.90;;;;;;7391120;19;20780;-72
2022/05/18 04:00:49;;;;;;;4.18;2.80;;;18.50;99.90;;;;;;7389899;19;20131;-73
2022/05/18 04:03:16;;;;;;;5.07;2.78;;;18.20;99.90;;;;;;7390506;19;20130;-73
2022/05/18 04:05:42;;;;;;;3.38;2.38;;;17.90;99.90;;;;;;7391358;19;20449;-73
2022/05/18 04:08:10;;;;;;;4.68;2.63;;;18.00;99.90;;;;;;7390412;19;20131;-75
2022/05/18 04:10:38;;;;;;;4.32;2.40;;;18.00;99.90;;;;;;7396241;19;20583;-75
2022/05/18 04:13:05;;;;;;;2.08;1.83;;;17.80;99.90;;;;;;7389201;19;20134;-73
2022/05/18 04:15:31;;;;;;;3.88;2.45;;;17.80;99.90;;;;;;7393263;19;20126;-73
2022/05/18 04:17:58;;;;;;;2.78;2.10;;;17.90;99.90;;;;;;7387761;19;20126;-74
2022/05/18 04:20:24;;;;;;;4.38;2.38;;;17.90;99.90;;;;;;7389310;19;20139;-74
2022/05/18 04:22:51;;;;;;;3.65;2.42;;;18.00;99.90;;;;;;7388039;19;20516;-73
2022/05/18 04:25:20;;;;;;;5.30;3.13;;;18.20;99.90;;;;;;7387707;19;20138;-75
2022/05/18 04:27:47;;;;;;;5.10;3.00;;;18.40;99.90;;;;;;7389913;19;20155;-74
2022/05/18 04:30:18;;;;;;;6.18;2.92;;;18.70;99.90;;;;;;7388146;19;20137;-74
2022/05/18 04:32:45;;;;;;;6.57;3.33;;;18.80;99.90;;;;;;7392094;19;20138;-73
2022/05/18 04:35:13;;;;;;;6.70;3.33;;;18.70;99.90;;;;;;7388008;19;20177;-73
2022/05/18 04:37:39;;;;;;;6.05;3.78;;;18.70;99.90;;;;;;7389305;19;20139;-74
2022/05/18 04:40:06;;;;;;;7.50;3.45;;;18.70;99.90;;;;;;7387790;19;20494;-73
2022/05/18 04:42:32;;;;;;;8.20;3.08;;;18.40;99.90;;;;;;7389285;19;20474;-73
2022/05/18 04:44:58;;;;;;;6.70;3.47;;;18.30;99.90;;;;;;7389993;19;20237;-73
2022/05/18 04:47:25;;;;;;;6.05;3.15;;;18.20;99.90;;;;;;7386829;19;20222;-73
2022/05/18 04:49:52;;;;;;;5.95;2.75;;;18.30;99.90;;;;;;7388617;19;20163;-74
2022/05/18 04:52:19;;;;;;;4.78;3.00;;;18.40;99.90;;;;;;7387805;19;20508;-74
2022/05/18 04:54:44;;;;;;;4.65;2.50;;;18.50;99.90;;;;;;7390823;19;20131;-73
2022/05/18 04:57:10;;;;;;;5.53;2.30;;;18.60;99.90;;;;;;7387837;19;20159;-73
2022/05/18 04:59:37;;;;;;;4.70;2.55;;;18.40;99.90;;;;;;7392622;19;20617;-73
2022/05/18 05:02:04;;;;;;;7.80;3.28;;;18.20;99.90;;;;;;7391597;19;20171;-75
2022/05/18 05:04:33;;;;;;;2.85;2.55;;;18.00;99.90;;;;;;7395083;19;20165;-75
2022/05/18 05:06:59;;;;;;;3.78;2.50;;;17.90;99.90;;;;;;7394370;19;21224;-75
2022/05/18 05:09:26;;;;;;;4.90;2.53;;;18.10;99.90;;;;;;7399109;19;20134;-73
2022/05/18 05:11:52;;;;;;;4.13;3.10;;;18.30;99.90;;;;;;7396270;19;20127;-73
2022/05/18 05:14:19;;;;;;;4.78;3.38;;;18.60;99.90;;;;;;7395949;19;20146;-73
2022/05/18 05:16:45;;;;;;;8.02;3.67;;;18.80;99.90;;;;;;7395683;19;20150;-75
2022/05/18 05:19:12;;;;;;;6.82;3.20;;;18.80;99.90;;;;;;7394514;19;20599;-73
2022/05/18 05:21:42;;;;;;;6.82;3.30;;;18.90;99.90;;;;;;7392556;19;20140;-72
2022/05/18 05:24:17;;;;;;;4.03;3.38;;;18.90;99.90;;;;;;7390597;19;20177;-74
2022/05/18 05:26:43;;;;;;;3.85;3.03;;;18.90;99.90;;;;;;7396030;19;20209;-72
2022/05/18 05:29:10;;;;;;;4.85;2.88;;;18.80;99.90;;;;;;7395819;19;20152;-72
2022/05/18 05:31:37;;;;;;;3.90;2.70;;;18.80;99.90;;;;;;7391290;19;20127;-75
2022/05/18 05:34:03;;;;;;;5.32;3.28;;;18.80;99.90;;;;;;7395274;19;20162;-75
2022/05/18 05:36:30;;;;;;;5.10;2.97;;;18.90;99.90;;;;;;7396179;19;20578;-75
2022/05/18 05:38:56;;;;;;;3.15;2.63;;;18.90;99.90;;;;;;7395564;19;20150;-74
2022/05/18 05:41:23;;;;;;;4.07;2.83;;;19.00;99.90;;;;;;7395996;19;20142;-71
2022/05/18 05:43:50;;;;;;;2.97;2.67;;;19.00;99.90;;;;;;7395613;19;20139;-72
2022/05/18 05:46:17;;;;;;;7.22;3.03;;;19.10;99.90;;;;;;7394926;19;20163;-73
2022/05/18 05:48:45;;;;;;;3.22;2.53;;;19.10;99.90;;;;;;7393957;19;20143;-75
2022/05/18 05:51:13;;;;;;;5.00;2.38;;;19.20;99.90;;;;;;7394487;19;20147;-71
2022/05/18 05:53:40;;;;;;;4.30;3.17;;;19.20;99.90;;;;;;7394629;19;20477;-71
2022/05/18 05:56:11;;;;;;;4.28;2.92;;;19.20;99.90;;;;;;7395004;19;20516;-71
2022/05/18 05:58:37;;;;;;;4.70;2.60;;;19.20;99.90;;;;;;7396999;19;20134;-75
2022/05/18 06:01:05;;;;;;;4.43;2.90;;;19.30;99.90;;;;;;7393419;19;20127;-73
2022/05/18 06:03:31;;;;;;;3.95;2.80;;;19.30;99.90;;;;;;7396509;19;20126;-73
2022/05/18 06:05:57;;;;;;;6.88;3.28;;;19.40;99.90;;;;;;7392379;19;20182;-73
2022/05/18 06:08:24;;;;;;;4.38;2.55;;;19.40;99.90;;;;;;7391250;19;20186;-74
2022/05/18 06:10:50;;;;;;;5.30;2.80;;;19.40;99.90;;;;;;7390903;19;20240;-74
2022/05/18 06:13:16;;;;;;;6.45;3.22;;;19.60;99.90;;;;;;7391439;19;20195;-72
2022/05/18 06:15:43;;;;;;;7.05;3.45;;;19.70;99.90;;;;;;7391168;19;20134;-72
2022/05/18 06:18:10;;;;;;;6.40;3.08;;;20.00;99.90;;;;;;7393311;19;20144;-74
2022/05/18 06:20:36;;;;;;;5.05;3.00;;;21.00;99.90;;;;;;7390826;19;20133;-73
2022/05/18 06:23:06;;;;;;;3.85;2.92;;;22.50;99.90;;;;;;7392469;19;20147;-72
2022/05/18 06:25:33;;;;;;;5.90;3.00;;;23.80;99.90;;;;;;7392564;19;20475;-73
2022/05/18 06:27:59;;;;;;;5.00;2.70;;;24.90;99.90;;;;;;7392604;19;20127;-75
2022/05/18 06:30:25;;;;;;;4.43;2.50;;;25.50;99.90;;;;;;7391997;19;20955;-70
2022/05/18 06:32:51;;;;;;;3.88;2.45;;;25.70;99.90;;;;;;7394211;19;20139;-73
2022/05/18 06:35:16;;;;;;;7.75;2.80;;;25.80;99.90;;;;;;7391893;19;20150;-71
2022/05/18 06:37:42;;;;;;;4.55;2.95;;;26.00;99.90;;;;;;7391462;19;20139;-74
2022/05/18 06:40:09;;;;;;;5.80;3.25;;;25.90;99.90;;;;;;7392956;19;20594;-71
2022/05/18 06:42:35;;;;;;;3.88;3.13;;;25.40;99.90;;;;;;7392430;19;20710;-73
2022/05/18 06:45:03;;;;;;;5.53;3.33;;;24.90;99.90;;;;;;7392059;19;20147;-72
2022/05/18 06:47:30;;;;;;;5.72;3.95;;;24.60;99.90;;;;;;7393212;19;20375;-71
2022/05/18 06:49:57;;;;;;;4.20;2.67;;;24.80;99.90;;;;;;7397188;19;20126;-71
2022/05/18 06:52:23;;;;;;;4.18;2.78;;;24.80;99.90;;;;;;7396185;19;20146;-71
2022/05/18 06:54:49;;;;;;;3.70;2.60;;;24.90;99.90;;;;;;7392493;19;20134;-72
2022/05/18 06:57:16;;;;;;;5.03;2.90;;;24.90;99.90;;;;;;7391823;19;20509;-72
2022/05/18 06:59:42;;;;;;;7.53;3.30;;;25.20;99.90;;;;;;7391809;19;20468;-75
2022/05/18 07:02:08;;;;;;;3.70;2.85;;;25.40;99.90;;;;;;7391324;19;20138;-73
2022/05/18 07:04:34;;;;;;;5.80;2.53;;;25.60;99.90;;;;;;7391558;19;20618;-73
2022/05/18 07:07:03;;;;;;;4.93;3.22;;;25.50;99.90;;;;;;7391118;19;20146;-71
2022/05/18 07:09:29;;;;;;;4.68;2.80;;;25.40;99.90;;;;;;7394524;19;20143;-73
2022/05/18 07:11:55;;;;;;;4.07;2.70;;;25.50;99.90;;;;;;7393809;19;20141;-74
2022/05/18 07:14:26;;;;;;;5.57;3.10;;;25.50;99.90;;;;;;7392129;19;20142;-72
2022/05/18 07:16:53;;;;;;;3.45;2.78;;;25.60;99.90;;;;;;7390635;19;20147;-73
2022/05/18 07:19:19;;;;;;;4.18;2.58;;;25.70;99.90;;;;;;7390196;19;20172;-74
2022/05/18 07:21:47;;;;;;;4.53;2.58;;;25.80;99.90;;;;;;7391441;19;20286;-76
2022/05/18 07:24:14;;;;;;;5.45;2.85;;;25.70;99.90;;;;;;7386187;19;20383;-71
2022/05/18 07:26:41;;;;;;;6.13;3.05;;;25.70;99.90;;;;;;7388070;19;20392;-74
2022/05/18 07:29:08;;;;;;;6.38;3.60;;;25.60;99.90;;;;;;7390115;19;20167;-74
2022/05/18 07:32:08;;;;;;;5.70;2.72;;;25.50;99.90;;;;;;7392901;19;20150;-75
2022/05/18 07:34:22;;;;;;;2.70;2.00;;;25.60;99.90;;;;;;7389995;19;20221;-75
2022/05/18 07:36:53;;;;;;;6.43;2.60;;;25.70;99.90;;;;;;7391004;19;20190;-75
2022/05/18 07:39:20;;;;;;;3.78;2.15;;;25.90;99.70;;;;;;7392900;19;20143;-74
2022/05/18 07:41:46;;;;;;;3.27;2.20;;;26.30;99.10;;;;;;7386609;19;20376;-74
2022/05/18 07:44:12;;;;;;;6.57;5.00;;;26.50;98.60;;;;;;7391242;19;20543;-74
2022/05/18 07:46:39;;;;;;;6.07;2.67;;;26.80;98.60;;;;;;7392481;19;20162;-72
2022/05/18 07:49:05;;;;;;;6.18;2.20;;;27.00;97.90;;;;;;7391387;19;20139;-75
2022/05/18 07:51:31;;;;;;;3.58;2.22;;;27.20;97.90;;;;;;7388530;19;20134;-74
2022/05/18 07:53:58;;;;;;;3.22;1.95;;;27.70;97.20;;;;;;7389784;19;20159;-75
2022/05/18 07:56:25;;;;;;;2.33;1.95;;;27.80;96.70;;;;;;7390857;19;20135;-75
2022/05/18 07:58:51;;;;;;;2.60;2.00;;;27.70;96.50;;;;;;7394992;19;20564;-76
2022/05/18 08:01:16;;;;;;;3.50;1.90;;;27.80;96.50;;;;;;7387422;19;20150;-72
2022/05/18 08:03:42;;;;;;;3.88;2.20;;;27.70;96.20;;;;;;7393564;19;20145;-75
2022/05/18 08:06:10;;;;;;;2.65;1.92;;;27.60;96.20;;;;;;7388310;19;20157;-76
2022/05/18 08:08:36;;;;;;;3.00;1.95;;;27.60;96.00;;;;;;7389796;19;20151;-72
2022/05/18 08:16:34;;;;;;;3.63;1.80;;;28.10;94.90;;;;;;7390751;19;20142;-75
2022/05/18 08:19:00;;;;;;;3.10;2.00;;;28.10;95.30;;;;;;7391451;19;20233;-70
2022/05/18 08:21:26;;;;;;;4.70;1.90;;;28.40;95.30;;;;;;7388956;19;20646;-73
2022/05/18 08:23:52;;;;;;;4.13;1.90;;;28.70;94.30;;;;;;7385908;19;20275;-71
2022/05/18 08:26:18;;;;;;;2.40;1.90;;;28.80;94.20;;;;;;7390047;19;20154;-73
2022/05/18 08:28:44;;;;;;;2.75;1.73;;;28.90;94.10;;;;;;7389934;19;20570;-77
2022/05/18 08:31:10;;;;;;;2.47;2.05;;;28.80;93.50;;;;;;7391692;19;20138;-72
2022/05/18 08:33:36;;;;;;;6.40;2.05;;;28.70;93.30;;;;;;7392241;19;20594;-72
2022/05/18 08:36:04;;;;;;;2.67;2.13;;;28.40;93.20;;;;;;7387826;19;20198;-74
2022/05/18 08:38:33;;;;;;;2.42;1.85;;;28.30;93.80;;;;;;7386896;19;20161;-75
2022/05/18 08:41:15;;;;;;;3.20;2.05;;;28.40;94.30;;;;;;7387222;19;20200;-71
2022/05/18 08:43:46;;;;;;;2.55;2.13;;;28.60;93.50;;;;;;7390390;19;20165;-72
2022/05/18 08:46:12;;;;;;;3.97;1.95;;;28.40;93.20;;;;;;7389859;19;20119;-72
2022/05/18 08:49:04;;;;;;;2.78;2.20;;;28.50;94.40;;;;;;7392020;19;20164;-75
2022/05/18 08:52:00;;;;;;;4.63;2.15;;;28.50;93.30;;;;;;7386281;19;20209;-71
2022/05/18 08:54:47;;;;;;;5.60;2.50;;;28.40;93.30;;;;;;7388433;19;20143;-71
2022/05/18 08:57:38;;;;;;;3.00;2.17;;;28.10;93.60;;;;;;7389525;19;20150;-72
2022/05/18 09:00:11;;;;;;;4.57;2.22;;;27.90;93.70;;;;;;7389252;19;20150;-71
2022/05/18 09:02:41;;;;;;;3.67;2.70;;;27.70;94.10;;;;;;7393594;19;20146;-75
2022/05/18 09:05:11;;;;;;;3.50;2.60;;;27.40;94.00;;;;;;7395646;19;20131;-74
2022/05/18 09:07:46;;;;;;;2.70;1.90;;;27.30;93.70;;;;;;7392118;19;20139;-72
2022/05/18 09:10:45;;;;;;;3.83;2.20;;;26.80;94.40;;;;;;7391283;19;20247;-73
2022/05/18 09:13:13;;;;;;;3.75;1.95;;;26.90;94.80;;;;;;7393013;19;20228;-70
2022/05/18 09:15:51;;;;;;;3.92;1.48;;;27.20;94.30;;;;;;7391022;19;20147;-75
2022/05/18 09:18:45;;;;;;;4.30;2.42;;;27.40;93.40;;;;;;7392285;19;20167;-75
2022/05/18 09:21:18;;;;;;;4.65;1.98;;;27.40;94.10;;;;;;7390676;19;20159;-71
2022/05/18 09:24:21;;;;;;;4.78;1.80;;;27.50;93.80;;;;;;7390218;19;20182;-73
2022/05/18 09:26:57;;;;;;;3.70;1.83;;;27.40;93.50;;;;;;7389857;19;20145;-76
2022/05/18 09:29:40;;;;;;;2.15;1.58;;;27.10;93.80;;;;;;7391476;19;20130;-72
2022/05/18 09:32:30;;;;;;;2.08;1.88;;;27.20;93.60;;;;;;7388178;19;20146;-72
2022/05/18 09:35:14;;;;;;;3.00;1.85;;;27.10;93.60;;;;;;7389200;19;20194;-75
2022/05/18 09:37:48;;;;;;;1.73;1.52;;;27.20;93.30;;;;;;7389476;19;20159;-75
2022/05/18 09:40:45;;;;;;;3.42;1.55;;;26.90;93.30;;;;;;7388554;19;20217;-71
2022/05/18 09:43:24;;;;;;;3.08;1.60;;;26.80;92.60;;;;;;7385495;19;20154;-71
2022/05/18 09:45:50;;;;;;;3.67;2.30;;;26.90;92.40;;;;;;7388530;19;20129;-75
2022/05/18 09:48:30;;;;;;;3.40;2.35;;;27.00;92.20;;;;;;7398303;19;20223;-71
2022/05/18 09:50:59;;;;;;;2.75;2.40;;;27.00;90.80;;;;;;7398897;19;20142;-71
2022/05/18 09:53:26;;;;;;;2.40;1.08;;;26.80;90.30;;;;;;7395405;19;20152;-75
2022/05/18 09:55:52;;;;;;;2.15;1.48;;;26.80;90.90;;;;;;7396100;19;20137;-76
2022/05/18 09:58:24;;;;;;;2.28;1.52;;;26.90;91.30;;;;;;7395951;19;20131;-76
2022/05/18 10:07:27;;;;;;;2.70;1.90;;;27.30;90.80;;;;;;7395841;19;20203;-75
2022/05/18 10:09:45;;;;;;;2.70;1.55;;;27.60;91.00;;;;;;7394618;19;20181;-73
2022/05/18 10:12:22;;;;;;;1.65;1.38;;;27.60;90.10;;;;;;7397858;19;20217;-72
2022/05/18 10:14:50;;;;;;;2.58;1.30;;;27.50;90.90;;;;;;7397180;19;20625;-74
2022/05/18 10:17:21;;;;;;;2.03;1.50;;;27.30;90.60;;;;;;7395942;19;20135;-72
2022/05/18 10:19:58;;;;;;;1.55;1.40;;;27.00;90.80;;;;;;7398028;19;20135;-70
2022/05/18 10:22:27;;;;;;;1.50;1.40;;;26.80;91.30;;;;;;7394944;19;20171;-76
2022/05/18 10:25:04;;;;;;;2.03;1.60;;;27.00;91.00;;;;;;7396630;19;20134;-76
2022/05/18 10:27:34;;;;;;;3.05;1.83;;;27.00;91.70;;;;;;7389737;19;20139;-70
2022/05/18 10:30:13;;;;;;;1.52;1.42;;;27.20;90.20;;;;;;7390162;19;20151;-75
2022/05/18 10:33:08;;;;;;;3.15;1.90;;;27.20;90.50;;;;;;7387039;19;20159;-75
2022/05/18 10:35:37;;;;;;;1.40;1.30;;;27.20;91.00;;;;;;7391920;19;20143;-75
2022/05/18 10:38:24;;;;;;;1.98;1.58;;;27.30;90.30;;;;;;7390128;19;20145;-77
2022/05/18 10:41:02;;;;;;;3.72;1.50;;;27.20;90.40;;;;;;7392177;19;20574;-72
2022/05/18 10:43:46;;;;;;;1.85;1.35;;;27.10;90.50;;;;;;7394531;19;20528;-71
2022/05/18 10:46:29;;;;;;;1.73;1.30;;;27.20;91.10;;;;;;7395699;19;20150;-72
2022/05/18 10:49:13;;;;;;;3.85;2.17;;;27.30;90.90;;;;;;7393648;19;20172;-73
2022/05/18 10:51:39;;;;;;;3.95;1.70;;;27.40;90.80;;;;;;7390932;19;20141;-74
2022/05/18 10:54:14;;;;;;;5.22;2.00;;;27.40;90.60;;;;;;7391981;19;20142;-76
2022/05/18 10:56:40;;;;;;;4.22;1.90;;;27.50;89.40;;;;;;7392060;19;20150;-73
2022/05/18 10:59:11;;;;;;;4.22;1.67;;;27.40;90.00;;;;;;7393544;19;20246;-75
2022/05/18 11:01:45;;;;;;;1.83;1.40;;;27.50;90.40;;;;;;7390715;19;20163;-73
2022/05/18 11:04:26;;;;;;;1.52;1.23;;;27.40;87.30;;;;;;7394745;19;20143;-76
2022/05/18 11:06:54;;;;;;;4.63;1.13;;;27.40;86.90;;;;;;7392451;19;20127;-75
2022/05/18 11:09:25;;;;;;;1.52;1.20;;;27.40;86.80;;;;;;7392533;19;20184;-75
2022/05/18 11:12:00;;;;;;;5.50;2.08;;;27.40;86.30;;;;;;7394528;19;20159;-73
2022/05/18 11:14:35;;;;;;;1.90;1.10;;;27.50;87.60;;;;;;7392714;19;20222;-75
2022/05/18 11:17:26;;;;;;;2.65;1.52;;;27.50;85.50;;;;;;7392542;19;20155;-73
2022/05/18 11:20:15;;;;;;;3.67;2.70;;;27.50;86.90;;;;;;7391846;19;20633;-76
2022/05/18 11:23:12;;;;;;;1.88;1.25;;;27.30;88.10;;;;;;7395661;19;20162;-70
2022/05/18 11:25:46;;;;;;;1.80;1.33;;;27.30;87.30;;;;;;7392851;19;20150;-76
2022/05/18 11:28:37;;;;;;;2.08;1.30;;;27.50;85.10;;;;;;7393190;19;20167;-76
2022/05/18 11:31:24;;;;;;;3.97;3.15;;;27.40;86.80;;;;;;7394556;19;20142;-75
2022/05/18 11:34:13;;;;;;;2.65;1.50;;;27.40;87.20;;;;;;7390796;19;20146;-73
2022/05/18 11:37:06;;;;;;;1.80;1.30;;;27.40;87.60;;;;;;7388208;19;20144;-72
2022/05/18 11:40:13;;;;;;;2.38;1.42;;;27.50;85.60;;;;;;7389326;19;20137;-76
2022/05/18 11:42:45;;;;;;;2.83;2.28;;;27.70;85.80;;;;;;7388624;19;20126;-73
2022/05/18 11:45:23;;;;;;;1.88;1.50;;;27.70;86.40;;;;;;7389475;19;20131;-73
2022/05/18 11:48:26;;;;;;;2.38;1.75;;;27.70;87.20;;;;;;7394806;19;20138;-73
2022/05/18 11:51:15;;;;;;;1.48;1.38;;;27.80;86.10;;;;;;7389599;19;20138;-74
2022/05/18 11:54:12;;;;;;;2.80;1.63;;;27.70;88.20;;;;;;7390418;19;20141;-72
2022/05/18 11:56:50;;;;;;;1.85;1.40;;;27.70;87.50;;;;;;7388913;19;20205;-74
2022/05/18 11:59:54;;;;;;;2.53;1.42;;;27.80;87.00;;;;;;7389576;19;20168;-72
2022/05/18 12:02:40;;;;;;;1.50;1.40;;;27.80;86.10;;;;;;7390057;19;20158;-74
2022/05/18 12:05:15;;;;;;;3.80;1.63;;;27.80;85.30;;;;;;7392889;19;20138;-73
2022/05/18 12:08:00;;;;;;;2.42;1.33;;;27.90;86.70;;;;;;7390210;19;20201;-72
2022/05/18 12:10:25;;;;;;;1.52;1.30;;;27.90;84.70;;;;;;7396161;19;20597;-75
2022/05/18 12:13:04;;;;;;;1.30;1.13;;;27.90;83.50;;;;;;7392006;19;20165;-72
2022/05/18 12:15:46;;;;;;;3.38;1.70;;;27.90;84.20;;;;;;7394179;19;20218;-73
2022/05/18 12:18:31;;;;;;;2.65;1.52;;;27.80;84.50;;;;;;7388152;19;20138;-74
2022/05/18 12:21:08;;;;;;;1.67;1.33;;;27.90;84.80;;;;;;7389752;19;20147;-73
2022/05/18 12:23:42;;;;;;;4.03;1.50;;;27.80;87.60;;;;;;7388072;19;20142;-72
2022/05/18 12:26:08;;;;;;;2.55;1.48;;;27.80;87.60;;;;;;7391733;19;20137;-73
2022/05/18 12:28:35;;;;;;;2.58;1.60;;;27.80;88.20;;;;;;7388906;19;20130;-72
2022/05/18 12:31:01;;;;;;;1.65;1.38;;;28.00;86.20;;;;;;7390314;19;20165;-74
2022/05/18 12:33:32;;;;;;;1.65;1.33;;;28.10;85.60;;;;;;7391527;19;20852;-76
2022/05/18 12:36:05;;;;;;;1.70;1.50;;;28.00;86.90;;;;;;7393542;19;20541;-74
2022/05/18 12:38:38;;;;;;;1.30;1.17;;;27.90;87.60;;;;;;7389743;19;20127;-74
2022/05/18 12:41:13;;;;;;;1.35;1.10;;;27.90;86.30;;;;;;7387284;19;20259;-74
2022/05/18 12:43:48;;;;;;;1.50;1.40;;;28.00;85.30;;;;;;7390645;19;20136;-74
2022/05/18 12:46:14;;;;;;;1.25;1.00;;;27.80;87.70;;;;;;7390697;19;20137;-72
2022/05/18 12:48:44;;;;;;;2.00;1.60;;;27.80;86.70;;;;;;7390718;19;20130;-76
2022/05/18 12:51:27;;;;;;;1.65;1.27;;;28.00;85.40;;;;;;7390064;19;20137;-73
2022/05/18 12:53:52;;;;;;;1.88;1.40;;;28.10;85.60;;;;;;7389224;19;20240;-75
2022/05/18 12:56:23;;;;;;;4.63;1.45;;;28.10;86.00;;;;;;7388841;19;20154;-73
2022/05/18 12:58:58;;;;;;;2.90;1.48;;;28.10;84.50;;;;;;7392361;19;20127;-73
2022/05/18 13:01:28;;;;;;;2.28;1.60;;;28.00;85.80;;;;;;7393633;19;20156;-73
2022/05/18 13:03:59;;;;;;;1.77;1.30;;;28.10;83.20;;;;;;7392070;19;20138;-74
2022/05/18 13:06:42;;;;;;;2.83;1.75;;;28.20;83.20;;;;;;7389101;19;20598;-74
2022/05/18 13:09:39;;;;;;;2.20;1.52;;;28.20;84.90;;;;;;7391500;19;20247;-74
2022/05/18 13:12:28;;;;;;;5.90;1.50;;;28.30;83.70;;;;;;7389632;19;20524;-76
2022/05/18 13:15:25;;;;;;;2.80;1.67;;;28.10;83.70;;;;;;7391379;19;20210;-75
2022/05/18 13:17:55;;;;;;;2.35;1.58;;;28.00;85.70;;;;;;7385960;19;20551;-76
2022/05/18 13:20:48;;;;;;;2.30;1.65;;;28.00;84.10;;;;;;7389074;19;20165;-74
2022/05/18 13:23:28;;;;;;;2.05;1.48;;;28.10;83.30;;;;;;7397511;19;20150;-74
2022/05/18 13:26:11;;;;;;;1.80;1.48;;;27.90;84.00;;;;;;7397248;19;20135;-76